This is the latest recevied weather packets stored in our database for station/object DB0SMU-12. If no packets are shown the sender has not sent any weather packets the latest 1 day(s).
| Time | Temp. | Humidity | Pressure | Rain* | Wind** | Luminosity | Snow |
|---|---|---|---|---|---|---|---|
| 1836274823 | 12.78° C | 80% | 1024.3 hPa | - | 4.02 m/s, 225° | - | - |
| 1836274642 | 12.78° C | 81% | 1024.3 hPa | - | 3.13 m/s, 225° | - | - |
| 1836274461 | 12.78° C | 81% | 1024.4 hPa | - | 3.13 m/s, 225° | - | - |
| 1836274434 | 12.78° C | 81% | 1024.3 hPa | - | 3.58 m/s, 224° | - | - |
| 1836274281 | 12.78° C | 82% | 1024.4 hPa | - | 3.58 m/s, 218° | - | - |
| 1836274254 | 12.78° C | 80% | 1024.3 hPa | - | 3.58 m/s, 225° | - | - |
| 1836274100 | 12.78° C | 82% | 1024.4 hPa | - | 3.13 m/s, 213° | - | - |
| 1836273919 | 12.78° C | 83% | 1024.5 hPa | - | 3.13 m/s, 223° | - | - |
| 1778017733 | 12.22° C | 77% | 1010.4 hPa | - | 4.02 m/s, 224° | - | - |
| 1778017552 | 12.22° C | 77% | 1010.4 hPa | - | 3.58 m/s, 225° | - | - |
| 1778017371 | 12.22° C | 77% | 1010.5 hPa | - | 4.02 m/s, 225° | - | - |
| 1778017190 | 12.22° C | 77% | 1010.6 hPa | - | 4.47 m/s, 225° | - | - |
| 1778017009 | 12.22° C | 76% | 1010.6 hPa | - | 4.47 m/s, 225° | - | - |
| 1778016828 | 12.22° C | 77% | 1010.6 hPa | - | 4.92 m/s, 221° | - | - |
| 1778016647 | 12.22° C | 76% | 1010.5 hPa | - | 4.02 m/s, 218° | - | - |
| 1778016467 | 12.22° C | 76% | 1010.6 hPa | - | 3.58 m/s, 225° | - | - |
| 1778016286 | 12.22° C | 76% | 1010.4 hPa | - | 3.58 m/s, 220° | - | - |
| 1778016105 | 12.78° C | 75% | 1010.4 hPa | - | 3.13 m/s, 225° | - | - |
| 1778015924 | 12.78° C | 75% | 1010.3 hPa | - | 2.24 m/s, 223° | - | - |
| 1778015743 | 12.78° C | 75% | 1010.2 hPa | - | 2.24 m/s, 235° | - | - |
| 1778015562 | 12.78° C | 75% | 1010.4 hPa | - | 2.68 m/s, 230° | - | - |
| 1778015381 | 12.78° C | 75% | 1010.3 hPa | - | 2.68 m/s, 223° | - | - |
| 1778015200 | 12.78° C | 75% | 1010.3 hPa | - | 4.02 m/s, 225° | - | - |
| 1778015019 | 12.78° C | 74% | 1010.4 hPa | - | 4.47 m/s, 228° | - | - |
| 1778014838 | 12.78° C | 74% | 1010.4 hPa | - | 5.36 m/s, 224° | - | - |
* Rain since midnight (hover to see other rain measurements)
** Current wind speed in m/s (hover to see current wind gust speed)